sensor_id;sensor_type;location;lat;lon;timestamp;P1;durP1;ratioP1;P2;durP2;ratioP2
28862;SDS011;15994;51.796;13.006;2022-11-20T00:01:19;17.20;;;10.35;;
28862;SDS011;15994;51.796;13.006;2022-11-20T00:03:47;17.50;;;10.70;;
28862;SDS011;15994;51.796;13.006;2022-11-20T00:06:15;16.40;;;10.43;;
28862;SDS011;15994;51.796;13.006;2022-11-20T00:08:43;17.65;;;11.52;;
28862;SDS011;15994;51.796;13.006;2022-11-20T00:11:12;15.82;;;10.73;;
28862;SDS011;15994;51.796;13.006;2022-11-20T00:13:40;17.77;;;11.55;;
28862;SDS011;15994;51.796;13.006;2022-11-20T00:16:07;17.88;;;11.45;;
28862;SDS011;15994;51.796;13.006;2022-11-20T00:18:36;18.45;;;10.88;;
28862;SDS011;15994;51.796;13.006;2022-11-20T00:21:03;18.13;;;11.52;;
28862;SDS011;15994;51.796;13.006;2022-11-20T00:23:31;17.27;;;11.50;;
28862;SDS011;15994;51.796;13.006;2022-11-20T00:26:05;18.75;;;11.50;;
28862;SDS011;15994;51.796;13.006;2022-11-20T00:28:33;19.90;;;11.98;;
28862;SDS011;15994;51.796;13.006;2022-11-20T00:31:13;17.55;;;11.23;;
28862;SDS011;15994;51.796;13.006;2022-11-20T00:33:41;18.25;;;10.77;;
28862;SDS011;15994;51.796;13.006;2022-11-20T00:36:09;18.30;;;11.68;;
28862;SDS011;15994;51.796;13.006;2022-11-20T00:38:37;17.73;;;11.75;;
28862;SDS011;15994;51.796;13.006;2022-11-20T00:41:06;17.77;;;11.05;;
28862;SDS011;15994;51.796;13.006;2022-11-20T00:43:34;17.55;;;11.18;;
28862;SDS011;15994;51.796;13.006;2022-11-20T00:46:08;15.98;;;11.07;;
28862;SDS011;15994;51.796;13.006;2022-11-20T00:48:36;18.42;;;11.98;;
28862;SDS011;15994;51.796;13.006;2022-11-20T00:51:03;18.23;;;12.02;;
28862;SDS011;15994;51.796;13.006;2022-11-20T00:53:30;18.67;;;11.88;;
28862;SDS011;15994;51.796;13.006;2022-11-20T00:55:58;16.85;;;11.27;;
28862;SDS011;15994;51.796;13.006;2022-11-20T00:58:32;20.00;;;11.90;;
28862;SDS011;15994;51.796;13.006;2022-11-20T01:01:01;19.85;;;12.52;;
28862;SDS011;15994;51.796;13.006;2022-11-20T01:03:32;21.42;;;12.20;;
28862;SDS011;15994;51.796;13.006;2022-11-20T01:06:04;21.00;;;12.05;;
28862;SDS011;15994;51.796;13.006;2022-11-20T01:08:34;21.65;;;12.20;;
28862;SDS011;15994;51.796;13.006;2022-11-20T01:11:07;17.55;;;11.95;;
28862;SDS011;15994;51.796;13.006;2022-11-20T01:13:36;19.63;;;12.25;;
28862;SDS011;15994;51.796;13.006;2022-11-20T01:16:10;20.83;;;12.95;;
28862;SDS011;15994;51.796;13.006;2022-11-20T01:18:49;22.95;;;12.32;;
28862;SDS011;15994;51.796;13.006;2022-11-20T01:21:36;17.90;;;12.35;;
28862;SDS011;15994;51.796;13.006;2022-11-20T01:24:04;20.40;;;12.73;;
28862;SDS011;15994;51.796;13.006;2022-11-20T01:26:34;21.48;;;13.18;;
28862;SDS011;15994;51.796;13.006;2022-11-20T01:29:02;21.60;;;13.55;;
28862;SDS011;15994;51.796;13.006;2022-11-20T01:31:33;22.48;;;13.68;;
28862;SDS011;15994;51.796;13.006;2022-11-20T01:34:02;22.55;;;13.82;;
28862;SDS011;15994;51.796;13.006;2022-11-20T01:36:35;22.25;;;13.55;;
28862;SDS011;15994;51.796;13.006;2022-11-20T01:39:14;19.65;;;13.88;;
28862;SDS011;15994;51.796;13.006;2022-11-20T01:41:51;20.25;;;13.10;;
28862;SDS011;15994;51.796;13.006;2022-11-20T01:47:29;22.42;;;14.27;;
28862;SDS011;15994;51.796;13.006;2022-11-20T01:50:18;23.25;;;14.23;;
28862;SDS011;15994;51.796;13.006;2022-11-20T01:52:52;23.90;;;14.82;;
28862;SDS011;15994;51.796;13.006;2022-11-20T01:55:26;25.60;;;15.20;;
28862;SDS011;15994;51.796;13.006;2022-11-20T01:57:58;23.85;;;13.68;;
28862;SDS011;15994;51.796;13.006;2022-11-20T02:00:26;21.52;;;13.65;;
28862;SDS011;15994;51.796;13.006;2022-11-20T02:03:26;22.02;;;14.27;;
28862;SDS011;15994;51.796;13.006;2022-11-20T02:05:51;21.40;;;13.70;;
28862;SDS011;15994;51.796;13.006;2022-11-20T02:08:33;22.95;;;14.30;;
28862;SDS011;15994;51.796;13.006;2022-11-20T02:11:01;24.17;;;14.05;;
28862;SDS011;15994;51.796;13.006;2022-11-20T02:13:27;24.63;;;14.52;;
28862;SDS011;15994;51.796;13.006;2022-11-20T02:16:09;24.05;;;13.80;;
28862;SDS011;15994;51.796;13.006;2022-11-20T02:18:39;21.80;;;14.48;;
28862;SDS011;15994;51.796;13.006;2022-11-20T02:21:07;24.45;;;14.63;;
28862;SDS011;15994;51.796;13.006;2022-11-20T02:24:03;21.85;;;13.77;;
28862;SDS011;15994;51.796;13.006;2022-11-20T02:26:38;22.85;;;14.13;;
28862;SDS011;15994;51.796;13.006;2022-11-20T02:29:28;22.73;;;13.73;;
28862;SDS011;15994;51.796;13.006;2022-11-20T02:32:00;22.52;;;14.05;;
28862;SDS011;15994;51.796;13.006;2022-11-20T02:34:28;22.75;;;14.60;;
28862;SDS011;15994;51.796;13.006;2022-11-20T02:36:54;23.85;;;14.73;;
28862;SDS011;15994;51.796;13.006;2022-11-20T02:39:23;23.75;;;13.85;;
28862;SDS011;15994;51.796;13.006;2022-11-20T02:41:55;21.63;;;13.57;;
28862;SDS011;15994;51.796;13.006;2022-11-20T02:44:22;21.95;;;14.27;;
28862;SDS011;15994;51.796;13.006;2022-11-20T02:46:49;24.60;;;14.40;;
28862;SDS011;15994;51.796;13.006;2022-11-20T02:49:16;24.45;;;14.95;;
28862;SDS011;15994;51.796;13.006;2022-11-20T02:51:42;25.58;;;14.35;;
28862;SDS011;15994;51.796;13.006;2022-11-20T02:54:09;24.13;;;15.15;;
28862;SDS011;15994;51.796;13.006;2022-11-20T02:56:37;27.25;;;15.75;;
28862;SDS011;15994;51.796;13.006;2022-11-20T02:59:04;24.63;;;15.35;;
28862;SDS011;15994;51.796;13.006;2022-11-20T03:01:31;24.75;;;15.18;;
28862;SDS011;15994;51.796;13.006;2022-11-20T03:03:58;26.65;;;16.20;;
28862;SDS011;15994;51.796;13.006;2022-11-20T03:06:25;24.65;;;15.07;;
28862;SDS011;15994;51.796;13.006;2022-11-20T03:08:51;25.80;;;15.40;;
28862;SDS011;15994;51.796;13.006;2022-11-20T03:11:18;27.77;;;15.95;;
28862;SDS011;15994;51.796;13.006;2022-11-20T03:13:45;26.58;;;15.32;;
28862;SDS011;15994;51.796;13.006;2022-11-20T03:16:12;25.90;;;15.68;;
28862;SDS011;15994;51.796;13.006;2022-11-20T03:18:41;23.77;;;15.48;;
28862;SDS011;15994;51.796;13.006;2022-11-20T03:21:08;27.75;;;16.15;;
28862;SDS011;15994;51.796;13.006;2022-11-20T03:23:36;28.92;;;16.42;;
28862;SDS011;15994;51.796;13.006;2022-11-20T03:28:47;27.40;;;15.95;;
28862;SDS011;15994;51.796;13.006;2022-11-20T03:31:16;26.23;;;15.77;;
28862;SDS011;15994;51.796;13.006;2022-11-20T03:33:44;27.00;;;15.70;;
28862;SDS011;15994;51.796;13.006;2022-11-20T03:36:12;27.90;;;15.23;;
28862;SDS011;15994;51.796;13.006;2022-11-20T03:38:40;25.10;;;15.23;;
28862;SDS011;15994;51.796;13.006;2022-11-20T03:41:14;26.25;;;15.75;;
28862;SDS011;15994;51.796;13.006;2022-11-20T03:46:16;26.40;;;15.95;;
28862;SDS011;15994;51.796;13.006;2022-11-20T03:48:42;28.65;;;16.80;;
28862;SDS011;15994;51.796;13.006;2022-11-20T03:51:16;27.77;;;16.55;;
28862;SDS011;15994;51.796;13.006;2022-11-20T03:53:46;27.98;;;16.20;;
28862;SDS011;15994;51.796;13.006;2022-11-20T03:56:14;27.67;;;16.55;;
28862;SDS011;15994;51.796;13.006;2022-11-20T03:58:42;29.00;;;16.27;;
28862;SDS011;15994;51.796;13.006;2022-11-20T04:01:10;27.45;;;16.42;;
28862;SDS011;15994;51.796;13.006;2022-11-20T04:03:41;28.20;;;16.83;;
28862;SDS011;15994;51.796;13.006;2022-11-20T04:06:11;28.73;;;16.73;;
28862;SDS011;15994;51.796;13.006;2022-11-20T04:08:42;30.05;;;17.50;;
28862;SDS011;15994;51.796;13.006;2022-11-20T04:11:12;27.60;;;16.30;;
28862;SDS011;15994;51.796;13.006;2022-11-20T04:13:41;29.25;;;16.88;;
28862;SDS011;15994;51.796;13.006;2022-11-20T04:16:09;28.08;;;16.65;;
28862;SDS011;15994;51.796;13.006;2022-11-20T04:18:36;29.52;;;16.63;;
28862;SDS011;15994;51.796;13.006;2022-11-20T04:21:03;28.23;;;16.88;;
28862;SDS011;15994;51.796;13.006;2022-11-20T04:23:30;30.13;;;17.20;;
28862;SDS011;15994;51.796;13.006;2022-11-20T04:26:01;30.58;;;17.02;;
28862;SDS011;15994;51.796;13.006;2022-11-20T04:28:29;29.10;;;16.98;;
28862;SDS011;15994;51.796;13.006;2022-11-20T04:31:01;29.42;;;17.55;;
28862;SDS011;15994;51.796;13.006;2022-11-20T04:33:28;30.38;;;18.00;;
28862;SDS011;15994;51.796;13.006;2022-11-20T04:35:55;31.88;;;18.05;;
28862;SDS011;15994;51.796;13.006;2022-11-20T04:38:30;32.15;;;17.25;;
28862;SDS011;15994;51.796;13.006;2022-11-20T04:40:57;33.35;;;18.17;;
28862;SDS011;15994;51.796;13.006;2022-11-20T04:43:25;33.13;;;18.10;;
28862;SDS011;15994;51.796;13.006;2022-11-20T04:45:55;33.60;;;18.65;;
28862;SDS011;15994;51.796;13.006;2022-11-20T04:48:23;31.35;;;18.77;;
28862;SDS011;15994;51.796;13.006;2022-11-20T04:50:51;29.63;;;17.63;;
28862;SDS011;15994;51.796;13.006;2022-11-20T04:53:18;32.10;;;17.83;;
28862;SDS011;15994;51.796;13.006;2022-11-20T04:55:45;31.63;;;17.88;;
28862;SDS011;15994;51.796;13.006;2022-11-20T04:58:13;30.30;;;17.83;;
28862;SDS011;15994;51.796;13.006;2022-11-20T05:00:40;30.63;;;17.92;;
28862;SDS011;15994;51.796;13.006;2022-11-20T05:03:07;29.35;;;17.25;;
28862;SDS011;15994;51.796;13.006;2022-11-20T05:05:34;30.77;;;17.77;;
28862;SDS011;15994;51.796;13.006;2022-11-20T05:08:01;30.23;;;18.27;;
28862;SDS011;15994;51.796;13.006;2022-11-20T05:10:27;30.60;;;19.02;;
28862;SDS011;15994;51.796;13.006;2022-11-20T05:12:54;31.20;;;18.38;;
28862;SDS011;15994;51.796;13.006;2022-11-20T05:15:21;33.03;;;18.60;;
28862;SDS011;15994;51.796;13.006;2022-11-20T05:17:48;33.55;;;18.67;;
28862;SDS011;15994;51.796;13.006;2022-11-20T05:20:15;29.80;;;17.52;;
28862;SDS011;15994;51.796;13.006;2022-11-20T05:22:42;30.75;;;18.20;;
28862;SDS011;15994;51.796;13.006;2022-11-20T05:25:09;32.78;;;18.52;;
28862;SDS011;15994;51.796;13.006;2022-11-20T05:27:36;33.13;;;19.58;;
28862;SDS011;15994;51.796;13.006;2022-11-20T05:30:04;32.47;;;18.50;;
28862;SDS011;15994;51.796;13.006;2022-11-20T05:32:31;32.03;;;18.73;;
28862;SDS011;15994;51.796;13.006;2022-11-20T05:34:57;34.50;;;18.55;;
28862;SDS011;15994;51.796;13.006;2022-11-20T05:37:24;35.55;;;19.83;;
28862;SDS011;15994;51.796;13.006;2022-11-20T05:39:51;31.77;;;18.90;;
28862;SDS011;15994;51.796;13.006;2022-11-20T05:42:17;31.80;;;19.00;;
28862;SDS011;15994;51.796;13.006;2022-11-20T05:44:59;34.55;;;19.20;;
28862;SDS011;15994;51.796;13.006;2022-11-20T05:47:27;37.72;;;20.23;;
28862;SDS011;15994;51.796;13.006;2022-11-20T05:49:58;34.10;;;20.23;;
28862;SDS011;15994;51.796;13.006;2022-11-20T05:52:27;35.40;;;20.15;;
28862;SDS011;15994;51.796;13.006;2022-11-20T05:54:55;36.00;;;20.65;;
28862;SDS011;15994;51.796;13.006;2022-11-20T05:57:22;33.92;;;19.77;;
28862;SDS011;15994;51.796;13.006;2022-11-20T05:59:48;36.05;;;20.52;;
28862;SDS011;15994;51.796;13.006;2022-11-20T06:02:15;37.83;;;20.27;;
28862;SDS011;15994;51.796;13.006;2022-11-20T06:04:41;34.00;;;20.40;;
28862;SDS011;15994;51.796;13.006;2022-11-20T06:07:08;39.78;;;22.38;;
28862;SDS011;15994;51.796;13.006;2022-11-20T06:09:35;39.08;;;20.80;;
28862;SDS011;15994;51.796;13.006;2022-11-20T06:12:01;35.65;;;20.80;;
28862;SDS011;15994;51.796;13.006;2022-11-20T06:14:28;36.63;;;21.10;;
28862;SDS011;15994;51.796;13.006;2022-11-20T06:16:55;38.20;;;20.88;;
28862;SDS011;15994;51.796;13.006;2022-11-20T06:19:21;37.10;;;21.13;;
28862;SDS011;15994;51.796;13.006;2022-11-20T06:21:48;37.05;;;21.77;;
28862;SDS011;15994;51.796;13.006;2022-11-20T06:24:15;38.60;;;21.63;;
28862;SDS011;15994;51.796;13.006;2022-11-20T06:26:42;40.05;;;21.98;;
28862;SDS011;15994;51.796;13.006;2022-11-20T06:29:09;41.88;;;22.23;;
28862;SDS011;15994;51.796;13.006;2022-11-20T06:31:36;39.60;;;22.13;;
28862;SDS011;15994;51.796;13.006;2022-11-20T06:34:03;43.20;;;22.20;;
28862;SDS011;15994;51.796;13.006;2022-11-20T06:36:31;43.60;;;23.27;;
28862;SDS011;15994;51.796;13.006;2022-11-20T06:38:58;40.85;;;23.30;;
28862;SDS011;15994;51.796;13.006;2022-11-20T06:41:25;40.67;;;22.00;;
28862;SDS011;15994;51.796;13.006;2022-11-20T06:43:52;42.65;;;22.92;;
28862;SDS011;15994;51.796;13.006;2022-11-20T06:46:20;39.70;;;22.27;;
28862;SDS011;15994;51.796;13.006;2022-11-20T06:48:47;39.72;;;22.20;;
28862;SDS011;15994;51.796;13.006;2022-11-20T06:51:14;41.83;;;22.13;;
28862;SDS011;15994;51.796;13.006;2022-11-20T06:53:41;42.97;;;22.63;;
28862;SDS011;15994;51.796;13.006;2022-11-20T06:56:08;44.53;;;24.10;;
28862;SDS011;15994;51.796;13.006;2022-11-20T06:58:35;40.45;;;22.10;;
28862;SDS011;15994;51.796;13.006;2022-11-20T07:01:04;41.25;;;22.42;;
28862;SDS011;15994;51.796;13.006;2022-11-20T07:03:38;40.00;;;21.90;;
28862;SDS011;15994;51.796;13.006;2022-11-20T07:06:06;39.92;;;21.48;;
28862;SDS011;15994;51.796;13.006;2022-11-20T07:08:34;45.85;;;24.02;;
28862;SDS011;15994;51.796;13.006;2022-11-20T07:11:01;41.13;;;22.00;;
28862;SDS011;15994;51.796;13.006;2022-11-20T07:13:30;40.97;;;23.15;;
28862;SDS011;15994;51.796;13.006;2022-11-20T07:16:01;44.50;;;23.80;;
28862;SDS011;15994;51.796;13.006;2022-11-20T07:18:30;41.60;;;22.73;;
28862;SDS011;15994;51.796;13.006;2022-11-20T07:20:59;44.75;;;23.50;;
28862;SDS011;15994;51.796;13.006;2022-11-20T07:23:30;43.92;;;24.13;;
28862;SDS011;15994;51.796;13.006;2022-11-20T07:25:57;44.72;;;23.40;;
28862;SDS011;15994;51.796;13.006;2022-11-20T07:28:24;42.47;;;23.02;;
28862;SDS011;15994;51.796;13.006;2022-11-20T07:30:51;41.53;;;22.77;;
28862;SDS011;15994;51.796;13.006;2022-11-20T07:33:19;42.17;;;24.23;;
28862;SDS011;15994;51.796;13.006;2022-11-20T07:35:46;43.53;;;23.75;;
28862;SDS011;15994;51.796;13.006;2022-11-20T07:38:13;45.05;;;24.95;;
28862;SDS011;15994;51.796;13.006;2022-11-20T07:40:39;47.65;;;24.73;;
28862;SDS011;15994;51.796;13.006;2022-11-20T07:43:06;44.97;;;24.48;;
28862;SDS011;15994;51.796;13.006;2022-11-20T07:45:33;44.58;;;24.38;;
28862;SDS011;15994;51.796;13.006;2022-11-20T07:47:59;44.85;;;24.13;;
28862;SDS011;15994;51.796;13.006;2022-11-20T07:50:26;43.42;;;24.13;;
28862;SDS011;15994;51.796;13.006;2022-11-20T07:52:59;45.97;;;24.95;;
28862;SDS011;15994;51.796;13.006;2022-11-20T07:55:28;42.97;;;24.10;;
28862;SDS011;15994;51.796;13.006;2022-11-20T07:57:55;43.58;;;24.08;;
28862;SDS011;15994;51.796;13.006;2022-11-20T08:00:22;43.50;;;23.52;;
28862;SDS011;15994;51.796;13.006;2022-11-20T08:02:49;47.30;;;24.45;;
28862;SDS011;15994;51.796;13.006;2022-11-20T08:05:16;46.35;;;25.45;;
28862;SDS011;15994;51.796;13.006;2022-11-20T08:07:43;44.88;;;24.67;;
28862;SDS011;15994;51.796;13.006;2022-11-20T08:10:11;49.05;;;26.55;;
28862;SDS011;15994;51.796;13.006;2022-11-20T08:12:48;44.72;;;24.88;;
28862;SDS011;15994;51.796;13.006;2022-11-20T08:15:34;41.45;;;23.05;;
28862;SDS011;15994;51.796;13.006;2022-11-20T08:18:03;43.85;;;25.25;;
28862;SDS011;15994;51.796;13.006;2022-11-20T08:20:31;46.65;;;25.85;;
28862;SDS011;15994;51.796;13.006;2022-11-20T08:22:59;45.80;;;24.73;;
28862;SDS011;15994;51.796;13.006;2022-11-20T08:25:27;43.75;;;25.05;;
28862;SDS011;15994;51.796;13.006;2022-11-20T08:27:59;47.10;;;25.83;;
28862;SDS011;15994;51.796;13.006;2022-11-20T08:30:26;45.30;;;24.52;;
28862;SDS011;15994;51.796;13.006;2022-11-20T08:32:53;48.08;;;25.65;;
28862;SDS011;15994;51.796;13.006;2022-11-20T08:35:21;43.50;;;25.27;;
28862;SDS011;15994;51.796;13.006;2022-11-20T08:37:48;49.50;;;25.77;;
28862;SDS011;15994;51.796;13.006;2022-11-20T08:40:15;44.00;;;25.13;;
28862;SDS011;15994;51.796;13.006;2022-11-20T08:42:45;45.05;;;24.80;;
28862;SDS011;15994;51.796;13.006;2022-11-20T08:45:13;46.83;;;25.25;;
28862;SDS011;15994;51.796;13.006;2022-11-20T08:47:40;45.35;;;25.70;;
28862;SDS011;15994;51.796;13.006;2022-11-20T08:50:07;47.42;;;25.80;;
28862;SDS011;15994;51.796;13.006;2022-11-20T08:52:34;45.80;;;25.23;;
28862;SDS011;15994;51.796;13.006;2022-11-20T08:55:04;47.47;;;25.02;;
28862;SDS011;15994;51.796;13.006;2022-11-20T08:57:32;41.90;;;24.55;;
28862;SDS011;15994;51.796;13.006;2022-11-20T08:59:59;47.08;;;24.42;;
28862;SDS011;15994;51.796;13.006;2022-11-20T09:02:26;44.58;;;25.65;;
28862;SDS011;15994;51.796;13.006;2022-11-20T09:04:53;44.83;;;24.60;;
28862;SDS011;15994;51.796;13.006;2022-11-20T09:07:20;43.67;;;25.15;;
28862;SDS011;15994;51.796;13.006;2022-11-20T09:09:46;44.00;;;25.08;;
28862;SDS011;15994;51.796;13.006;2022-11-20T09:12:13;42.67;;;24.77;;
28862;SDS011;15994;51.796;13.006;2022-11-20T09:14:40;43.03;;;24.48;;
28862;SDS011;15994;51.796;13.006;2022-11-20T09:17:06;43.58;;;25.42;;
28862;SDS011;15994;51.796;13.006;2022-11-20T09:19:33;41.65;;;24.25;;
28862;SDS011;15994;51.796;13.006;2022-11-20T09:22:00;38.95;;;24.00;;
28862;SDS011;15994;51.796;13.006;2022-11-20T09:24:27;41.35;;;23.70;;
28862;SDS011;15994;51.796;13.006;2022-11-20T09:26:53;42.05;;;24.30;;
28862;SDS011;15994;51.796;13.006;2022-11-20T09:29:20;42.63;;;25.27;;
28862;SDS011;15994;51.796;13.006;2022-11-20T09:31:47;41.65;;;24.92;;
28862;SDS011;15994;51.796;13.006;2022-11-20T09:34:13;43.47;;;24.98;;
28862;SDS011;15994;51.796;13.006;2022-11-20T09:36:40;42.10;;;25.25;;
28862;SDS011;15994;51.796;13.006;2022-11-20T09:39:06;42.33;;;25.35;;
28862;SDS011;15994;51.796;13.006;2022-11-20T09:53:13;41.17;;;24.08;;
28862;SDS011;15994;51.796;13.006;2022-11-20T09:55:42;38.67;;;23.15;;
28862;SDS011;15994;51.796;13.006;2022-11-20T10:01:12;40.17;;;23.73;;
28862;SDS011;15994;51.796;13.006;2022-11-20T10:03:45;44.58;;;25.20;;
28862;SDS011;15994;51.796;13.006;2022-11-20T10:06:18;41.33;;;24.35;;
28862;SDS011;15994;51.796;13.006;2022-11-20T10:08:59;40.15;;;22.48;;
28862;SDS011;15994;51.796;13.006;2022-11-20T10:11:35;39.05;;;23.42;;
28862;SDS011;15994;51.796;13.006;2022-11-20T10:14:15;37.65;;;22.95;;
28862;SDS011;15994;51.796;13.006;2022-11-20T10:25:20;39.10;;;23.67;;
28862;SDS011;15994;51.796;13.006;2022-11-20T10:28:12;38.65;;;22.20;;
28862;SDS011;15994;51.796;13.006;2022-11-20T10:30:49;36.45;;;22.17;;
28862;SDS011;15994;51.796;13.006;2022-11-20T10:33:27;41.30;;;23.35;;
28862;SDS011;15994;51.796;13.006;2022-11-20T10:38:38;37.13;;;21.52;;
28862;SDS011;15994;51.796;13.006;2022-11-20T10:41:14;33.30;;;20.83;;
28862;SDS011;15994;51.796;13.006;2022-11-20T10:43:53;35.92;;;21.98;;
28862;SDS011;15994;51.796;13.006;2022-11-20T10:46:40;35.15;;;21.50;;
28862;SDS011;15994;51.796;13.006;2022-11-20T10:49:14;36.70;;;21.75;;
28862;SDS011;15994;51.796;13.006;2022-11-20T11:00:22;33.20;;;21.58;;
28862;SDS011;15994;51.796;13.006;2022-11-20T11:02:50;33.75;;;20.27;;
28862;SDS011;15994;51.796;13.006;2022-11-20T11:07:54;33.47;;;19.90;;
28862;SDS011;15994;51.796;13.006;2022-11-20T11:13:20;32.35;;;20.38;;
28862;SDS011;15994;51.796;13.006;2022-11-20T11:15:48;32.75;;;19.15;;
28862;SDS011;15994;51.796;13.006;2022-11-20T11:18:27;29.63;;;18.33;;
28862;SDS011;15994;51.796;13.006;2022-11-20T11:20:59;29.95;;;17.55;;
28862;SDS011;15994;51.796;13.006;2022-11-20T11:26:01;31.02;;;18.23;;
28862;SDS011;15994;51.796;13.006;2022-11-20T11:28:29;29.10;;;18.35;;
28862;SDS011;15994;51.796;13.006;2022-11-20T11:30:56;27.88;;;17.00;;
28862;SDS011;15994;51.796;13.006;2022-11-20T11:33:24;27.27;;;17.77;;
28862;SDS011;15994;51.796;13.006;2022-11-20T11:35:58;29.02;;;17.50;;
28862;SDS011;15994;51.796;13.006;2022-11-20T11:38:38;28.13;;;19.20;;
28862;SDS011;15994;51.796;13.006;2022-11-20T11:41:09;27.50;;;17.15;;
28862;SDS011;15994;51.796;13.006;2022-11-20T11:43:48;27.15;;;17.52;;
28862;SDS011;15994;51.796;13.006;2022-11-20T11:46:38;26.63;;;17.13;;
28862;SDS011;15994;51.796;13.006;2022-11-20T11:51:41;24.80;;;16.08;;
28862;SDS011;15994;51.796;13.006;2022-11-20T11:54:16;25.73;;;15.52;;
28862;SDS011;15994;51.796;13.006;2022-11-20T11:56:48;25.63;;;16.02;;
28862;SDS011;15994;51.796;13.006;2022-11-20T11:59:21;24.98;;;15.82;;
28862;SDS011;15994;51.796;13.006;2022-11-20T12:01:59;24.85;;;16.58;;
28862;SDS011;15994;51.796;13.006;2022-11-20T12:07:07;24.90;;;15.80;;
28862;SDS011;15994;51.796;13.006;2022-11-20T12:09:48;24.10;;;15.25;;
28862;SDS011;15994;51.796;13.006;2022-11-20T12:12:19;23.75;;;14.98;;
28862;SDS011;15994;51.796;13.006;2022-11-20T12:14:50;25.13;;;15.95;;
28862;SDS011;15994;51.796;13.006;2022-11-20T12:17:20;24.10;;;15.73;;
28862;SDS011;15994;51.796;13.006;2022-11-20T12:19:47;27.00;;;17.02;;
28862;SDS011;15994;51.796;13.006;2022-11-20T12:30:33;25.60;;;16.08;;
28862;SDS011;15994;51.796;13.006;2022-11-20T12:36:13;24.50;;;15.85;;
28862;SDS011;15994;51.796;13.006;2022-11-20T12:42:47;25.90;;;16.67;;
28862;SDS011;15994;51.796;13.006;2022-11-20T12:59:02;21.88;;;13.73;;
28862;SDS011;15994;51.796;13.006;2022-11-20T13:07:03;16.70;;;11.48;;
28862;SDS011;15994;51.796;13.006;2022-11-20T13:09:34;19.35;;;12.68;;
28862;SDS011;15994;51.796;13.006;2022-11-20T13:17:30;18.50;;;12.05;;
28862;SDS011;15994;51.796;13.006;2022-11-20T13:20:05;17.88;;;12.35;;
28862;SDS011;15994;51.796;13.006;2022-11-20T13:22:53;16.73;;;11.40;;
28862;SDS011;15994;51.796;13.006;2022-11-20T13:25:43;19.00;;;11.98;;
28862;SDS011;15994;51.796;13.006;2022-11-20T13:30:35;17.65;;;11.05;;
28862;SDS011;15994;51.796;13.006;2022-11-20T13:33:25;17.52;;;11.57;;
28862;SDS011;15994;51.796;13.006;2022-11-20T13:38:23;23.20;;;13.35;;
28862;SDS011;15994;51.796;13.006;2022-11-20T13:40:50;19.05;;;13.48;;
28862;SDS011;15994;51.796;13.006;2022-11-20T13:43:33;19.95;;;12.88;;
28862;SDS011;15994;51.796;13.006;2022-11-20T13:46:06;22.58;;;14.13;;
28862;SDS011;15994;51.796;13.006;2022-11-20T13:48:41;22.02;;;14.13;;
28862;SDS011;15994;51.796;13.006;2022-11-20T13:51:11;23.63;;;15.50;;
28862;SDS011;15994;51.796;13.006;2022-11-20T13:57:03;27.90;;;16.63;;
28862;SDS011;15994;51.796;13.006;2022-11-20T13:59:53;27.20;;;16.80;;
28862;SDS011;15994;51.796;13.006;2022-11-20T14:02:25;27.50;;;17.15;;
28862;SDS011;15994;51.796;13.006;2022-11-20T14:04:55;27.17;;;18.25;;
28862;SDS011;15994;51.796;13.006;2022-11-20T14:07:26;28.50;;;18.02;;
28862;SDS011;15994;51.796;13.006;2022-11-20T14:10:01;29.17;;;18.38;;
28862;SDS011;15994;51.796;13.006;2022-11-20T14:12:29;29.50;;;19.13;;
28862;SDS011;15994;51.796;13.006;2022-11-20T14:14:57;29.30;;;18.98;;
28862;SDS011;15994;51.796;13.006;2022-11-20T14:19:55;36.70;;;18.80;;
28862;SDS011;15994;51.796;13.006;2022-11-20T14:22:27;30.05;;;18.75;;
28862;SDS011;15994;51.796;13.006;2022-11-20T14:25:05;28.30;;;17.50;;
28862;SDS011;15994;51.796;13.006;2022-11-20T14:27:39;29.88;;;17.80;;
28862;SDS011;15994;51.796;13.006;2022-11-20T14:30:14;29.75;;;18.65;;
28862;SDS011;15994;51.796;13.006;2022-11-20T14:32:42;28.80;;;18.08;;
28862;SDS011;15994;51.796;13.006;2022-11-20T14:35:30;31.80;;;19.02;;
28862;SDS011;15994;51.796;13.006;2022-11-20T14:38:02;32.55;;;19.15;;
28862;SDS011;15994;51.796;13.006;2022-11-20T14:40:31;32.17;;;18.50;;
28862;SDS011;15994;51.796;13.006;2022-11-20T14:43:00;32.17;;;19.67;;
28862;SDS011;15994;51.796;13.006;2022-11-20T14:45:27;29.58;;;18.00;;
28862;SDS011;15994;51.796;13.006;2022-11-20T14:47:55;31.35;;;19.00;;
28862;SDS011;15994;51.796;13.006;2022-11-20T14:50:24;28.50;;;17.40;;
28862;SDS011;15994;51.796;13.006;2022-11-20T14:52:55;29.75;;;18.20;;
28862;SDS011;15994;51.796;13.006;2022-11-20T14:57:57;28.45;;;17.42;;
28862;SDS011;15994;51.796;13.006;2022-11-20T15:00:29;28.77;;;17.77;;
28862;SDS011;15994;51.796;13.006;2022-11-20T15:02:57;28.67;;;17.60;;
28862;SDS011;15994;51.796;13.006;2022-11-20T15:05:25;29.92;;;17.67;;
28862;SDS011;15994;51.796;13.006;2022-11-20T15:08:11;30.33;;;18.27;;
28862;SDS011;15994;51.796;13.006;2022-11-20T15:10:38;27.55;;;16.50;;
28862;SDS011;15994;51.796;13.006;2022-11-20T15:15:56;29.10;;;17.63;;
28862;SDS011;15994;51.796;13.006;2022-11-20T15:18:26;31.27;;;17.02;;
28862;SDS011;15994;51.796;13.006;2022-11-20T15:20:56;27.98;;;16.70;;
28862;SDS011;15994;51.796;13.006;2022-11-20T15:23:26;26.25;;;16.40;;
28862;SDS011;15994;51.796;13.006;2022-11-20T15:25:53;29.10;;;16.95;;
28862;SDS011;15994;51.796;13.006;2022-11-20T15:28:30;32.58;;;18.10;;
28862;SDS011;15994;51.796;13.006;2022-11-20T15:30:59;29.70;;;17.25;;
28862;SDS011;15994;51.796;13.006;2022-11-20T15:33:27;31.30;;;18.10;;
28862;SDS011;15994;51.796;13.006;2022-11-20T15:35:53;29.27;;;16.63;;
28862;SDS011;15994;51.796;13.006;2022-11-20T15:38:20;29.83;;;17.02;;
28862;SDS011;15994;51.796;13.006;2022-11-20T15:40:47;28.13;;;16.27;;
28862;SDS011;15994;51.796;13.006;2022-11-20T15:43:13;28.33;;;16.02;;
28862;SDS011;15994;51.796;13.006;2022-11-20T15:45:47;28.05;;;15.82;;
28862;SDS011;15994;51.796;13.006;2022-11-20T15:48:18;27.90;;;15.82;;
28862;SDS011;15994;51.796;13.006;2022-11-20T15:50:52;26.70;;;15.68;;
28862;SDS011;15994;51.796;13.006;2022-11-20T15:53:21;25.30;;;15.02;;
28862;SDS011;15994;51.796;13.006;2022-11-20T15:55:48;24.30;;;14.85;;
28862;SDS011;15994;51.796;13.006;2022-11-20T15:58:15;24.90;;;14.55;;
28862;SDS011;15994;51.796;13.006;2022-11-20T16:00:43;24.42;;;14.38;;
28862;SDS011;15994;51.796;13.006;2022-11-20T16:03:10;24.05;;;13.48;;
28862;SDS011;15994;51.796;13.006;2022-11-20T16:05:38;26.60;;;14.73;;
28862;SDS011;15994;51.796;13.006;2022-11-20T16:08:04;24.50;;;14.23;;
28862;SDS011;15994;51.796;13.006;2022-11-20T16:10:31;24.83;;;14.55;;
28862;SDS011;15994;51.796;13.006;2022-11-20T16:12:58;23.20;;;13.98;;
28862;SDS011;15994;51.796;13.006;2022-11-20T16:15:50;25.35;;;15.30;;
28862;SDS011;15994;51.796;13.006;2022-11-20T16:18:19;27.45;;;15.68;;